createdAt,value
2022-08-09T00:00:04.966Z,54.91
2022-08-09T00:06:16.143Z,54.17
2022-08-09T00:10:35.693Z,54.72
2022-08-09T00:15:59.317Z,55.55
2022-08-09T00:20:59.527Z,56.33
2022-08-09T00:26:01.147Z,56.55
2022-08-09T00:31:09.150Z,56.68
2022-08-09T00:36:30.660Z,56.42
2022-08-09T00:44:11.608Z,56.50
2022-08-09T00:47:01.695Z,57.64
2022-08-09T00:52:17.318Z,57.70
2022-08-09T00:57:24.677Z,58.38
2022-08-09T01:02:40.370Z,58.35
2022-08-09T01:08:03.359Z,58.25
2022-08-09T01:13:11.789Z,59.62
2022-08-09T01:18:18.305Z,59.57
2022-08-09T01:24:02.270Z,59.86
2022-08-09T01:29:07.008Z,59.79
2022-08-09T01:34:12.823Z,59.81
2022-08-09T01:39:23.126Z,59.93
2022-08-09T01:44:26.014Z,60.08
2022-08-09T01:49:39.222Z,60.63
2022-08-09T01:54:55.489Z,60.13
2022-08-09T02:00:19.177Z,59.90
2022-08-09T02:05:37.654Z,60.08
2022-08-09T02:10:50.966Z,60.88
2022-08-09T02:15:56.310Z,61.25
2022-08-09T02:21:05.871Z,61.31
2022-08-09T02:26:24.882Z,61.68
2022-08-09T02:31:36.274Z,62.19
2022-08-09T02:36:42.723Z,62.34
2022-08-09T02:41:52.966Z,62.24
2022-08-09T02:46:57.383Z,63.21
2022-08-09T02:52:00.670Z,62.59
2022-08-09T02:57:13.888Z,63.53
2022-08-09T03:02:26.236Z,63.44
2022-08-09T03:07:34.351Z,63.97
2022-08-09T03:12:39.032Z,64.15
2022-08-09T03:17:40.918Z,63.92
2022-08-09T03:22:44.905Z,64.62
2022-08-09T03:27:51.800Z,64.44
2022-08-09T03:32:55.592Z,64.41
2022-08-09T03:37:58.752Z,64.48
2022-08-09T03:43:00.460Z,64.13
2022-08-09T03:48:03.592Z,65.47
2022-08-09T03:53:07.249Z,65.62
2022-08-09T03:58:16.928Z,65.70
2022-08-09T04:03:35.284Z,65.33
2022-08-09T04:08:46.568Z,64.51
2022-08-09T04:14:54.273Z,64.29
2022-08-09T04:19:11.090Z,63.60
2022-08-09T04:24:31.926Z,63.92
2022-08-09T04:29:34.858Z,63.99
2022-08-09T04:34:36.555Z,63.48
2022-08-09T04:39:40.617Z,63.27
2022-08-09T04:44:49.435Z,63.19
2022-08-09T04:49:55.094Z,62.69
2022-08-09T04:54:59.613Z,61.84
2022-08-09T05:00:01.592Z,61.15
2022-08-09T05:05:10.096Z,61.54
2022-08-09T05:10:13.040Z,61.32
2022-08-09T05:15:24.609Z,60.54
2022-08-09T05:20:36.114Z,60.48
2022-08-09T05:25:38.349Z,59.57
2022-08-09T05:30:47.899Z,59.50
2022-08-09T05:35:50.893Z,58.71
2022-08-09T05:40:52.904Z,56.98
2022-08-09T05:45:56.790Z,56.03
2022-08-09T05:51:30.318Z,56.42
2022-08-09T05:56:21.059Z,55.68
2022-08-09T06:01:33.595Z,54.79
2022-08-09T06:06:35.930Z,54.34
2022-08-09T06:11:41.215Z,54.25
2022-08-09T06:16:59.118Z,52.42
2022-08-09T06:22:07.029Z,51.84
2022-08-09T06:27:17.115Z,51.08
2022-08-09T06:32:53.110Z,50.73
2022-08-09T06:37:52.871Z,50.71
2022-08-09T06:43:03.155Z,49.82
2022-08-09T06:48:04.771Z,49.42
2022-08-09T06:53:06.663Z,48.77
2022-08-09T06:58:08.207Z,48.05
2022-08-09T07:03:29.796Z,47.29
2022-08-09T07:08:34.305Z,46.69
2022-08-09T07:13:44.898Z,45.90
2022-08-09T07:18:57.604Z,45.25
2022-08-09T07:23:59.196Z,44.76
2022-08-09T07:29:08.503Z,45.29
2022-08-09T07:34:19.384Z,43.85
2022-08-09T07:39:40.349Z,43.45
2022-08-09T07:44:51.563Z,43.62
2022-08-09T07:50:07.717Z,43.50
2022-08-09T07:55:11.769Z,43.17
2022-08-09T08:00:13.766Z,42.84
2022-08-09T08:05:22.646Z,43.37
2022-08-09T08:10:27.291Z,42.38
2022-08-09T08:15:30.024Z,42.42
2022-08-09T08:20:37.331Z,42.26
2022-08-09T08:25:43.851Z,42.96
2022-08-09T08:30:47.492Z,41.85
2022-08-09T08:35:58.742Z,41.49
2022-08-09T08:41:06.276Z,41.61
2022-08-09T08:46:32.151Z,41.35
2022-08-09T08:51:54.464Z,40.93
2022-08-09T08:56:55.426Z,40.87
2022-08-09T09:01:59.879Z,40.48
2022-08-09T09:07:09.898Z,39.77
2022-08-09T09:12:16.709Z,40.96
2022-08-09T09:17:19.738Z,39.95
2022-08-09T09:22:23.872Z,39.12
2022-08-09T09:28:03.719Z,39.00
2022-08-09T09:33:16.751Z,39.03
2022-08-09T09:38:27.630Z,39.05
2022-08-09T09:43:41.540Z,38.85
2022-08-09T09:49:06.390Z,37.85
2022-08-09T09:54:20.419Z,36.99
2022-08-09T09:59:35.962Z,36.59
2022-08-09T10:04:38.118Z,36.34
2022-08-09T10:09:54.873Z,35.53
2022-08-09T10:15:17.551Z,33.62
2022-08-09T10:20:33.021Z,31.22
2022-08-09T10:26:06.686Z,31.28
2022-08-09T10:36:22.078Z,31.36
2022-08-09T10:41:24.139Z,30.60
2022-08-09T10:46:57.721Z,30.40
2022-08-09T10:52:20.179Z,31.13
2022-08-09T10:57:23.512Z,31.92
2022-08-09T11:03:27.119Z,31.55
2022-08-09T11:08:47.163Z,31.62
2022-08-09T11:14:16.432Z,32.16
2022-08-09T11:20:10.561Z,31.54
2022-08-09T11:25:25.938Z,30.92
2022-08-09T11:30:38.488Z,31.00
2022-08-09T11:35:54.735Z,31.34
2022-08-09T11:40:56.477Z,30.91
2022-08-09T11:46:00.548Z,31.26
2022-08-09T11:52:49.358Z,31.30
2022-08-09T11:56:42.832Z,31.31
2022-08-09T12:02:16.192Z,30.57
2022-08-09T12:07:11.070Z,31.08
2022-08-09T12:12:20.582Z,30.67
2022-08-09T12:17:41.597Z,30.43
2022-08-09T12:22:47.306Z,30.73
2022-08-09T12:29:14.402Z,30.23
2022-08-09T12:33:35.572Z,30.71
2022-08-09T12:38:57.595Z,30.70
2022-08-09T12:44:06.490Z,29.87
2022-08-09T12:49:09.559Z,29.88
2022-08-09T12:54:11.149Z,29.44
2022-08-09T12:59:19.887Z,29.48
2022-08-09T13:04:36.519Z,29.03
2022-08-09T13:09:40.939Z,29.51
2022-08-09T13:14:48.854Z,29.24
2022-08-09T13:20:07.511Z,28.79
2022-08-09T13:25:13.875Z,28.88
2022-08-09T13:30:49.441Z,28.88
2022-08-09T13:36:38.656Z,29.27
2022-08-09T13:41:53.917Z,28.82
2022-08-09T13:47:16.397Z,28.70
2022-08-09T13:51:52.383Z,28.42
2022-08-09T13:57:06.350Z,27.90
2022-08-09T14:02:08.496Z,28.41
2022-08-09T14:07:11.599Z,27.33
2022-08-09T14:12:15.752Z,27.17
2022-08-09T14:17:17.548Z,27.51
2022-08-09T14:22:24.859Z,27.38
2022-08-09T14:27:26.687Z,27.17
2022-08-09T14:32:30.989Z,27.33
2022-08-09T14:37:41.380Z,26.18
2022-08-09T14:42:55.661Z,25.92
2022-08-09T14:48:00.311Z,25.79
2022-08-09T14:53:11.228Z,26.26
2022-08-09T14:58:13.436Z,26.42
2022-08-09T15:03:20.255Z,26.56
2022-08-09T15:08:23.826Z,26.24
2022-08-09T15:13:26.016Z,25.98
2022-08-09T15:18:48.426Z,25.96
2022-08-09T15:24:01.983Z,25.97
2022-08-09T15:30:48.593Z,25.40
2022-08-09T15:34:35.627Z,25.14
2022-08-09T15:39:53.495Z,25.50
2022-08-09T15:44:58.335Z,25.74
2022-08-09T15:50:04.937Z,25.06
2022-08-09T15:55:11.016Z,25.91
2022-08-09T16:00:25.357Z,25.34
2022-08-09T16:05:47.238Z,25.59
2022-08-09T16:10:55.822Z,24.93
2022-08-09T16:16:10.256Z,24.89
2022-08-09T16:21:17.340Z,25.44
2022-08-09T16:26:35.254Z,25.94
2022-08-09T16:32:19.257Z,25.89
2022-08-09T16:36:59.672Z,26.30
2022-08-09T16:42:03.974Z,26.58
2022-08-09T16:48:40.515Z,25.96
2022-08-09T16:52:28.171Z,26.33
2022-08-09T16:58:08.485Z,26.01
2022-08-09T17:02:51.347Z,26.78
2022-08-09T17:08:46.217Z,26.32
2022-08-09T17:13:14.846Z,26.63
2022-08-09T17:18:16.441Z,26.71
2022-08-09T17:23:37.207Z,26.68
2022-08-09T17:28:50.233Z,26.31
2022-08-09T17:33:53.506Z,27.03
2022-08-09T17:38:57.892Z,26.78
2022-08-09T17:44:37.901Z,27.33
2022-08-09T17:49:22.432Z,27.51
2022-08-09T17:54:25.361Z,27.95
2022-08-09T17:59:38.450Z,27.93
2022-08-09T18:04:40.144Z,28.60
2022-08-09T18:09:42.806Z,28.18
2022-08-09T18:14:50.156Z,28.15
2022-08-09T18:20:54.437Z,28.74
2022-08-09T18:25:19.827Z,29.01
2022-08-09T18:30:48.609Z,29.37
2022-08-09T18:35:58.844Z,29.40
2022-08-09T18:41:02.202Z,29.93
2022-08-09T18:46:46.946Z,30.28
2022-08-09T18:51:38.609Z,30.56
2022-08-09T18:56:53.839Z,31.20
2022-08-09T19:01:56.900Z,31.28
2022-08-09T19:06:58.580Z,31.93
2022-08-09T19:12:03.844Z,32.58
2022-08-09T19:17:05.673Z,32.63
2022-08-09T19:22:11.991Z,33.51
2022-08-09T19:27:16.757Z,33.77
2022-08-09T19:32:19.120Z,33.71
2022-08-09T19:37:21.111Z,34.29
2022-08-09T19:42:28.352Z,34.31
2022-08-09T19:47:29.975Z,34.92
2022-08-09T19:52:51.446Z,35.49
2022-08-09T19:57:53.918Z,35.43
2022-08-09T20:04:10.707Z,36.12
2022-08-09T20:08:25.198Z,36.32
2022-08-09T20:13:36.763Z,36.75
2022-08-09T20:18:39.779Z,37.10
2022-08-09T20:24:01.479Z,37.48
2022-08-09T20:29:10.324Z,38.36
2022-08-09T20:34:20.667Z,38.66
2022-08-09T20:40:16.585Z,39.33
2022-08-09T20:44:50.925Z,39.57
2022-08-09T20:50:10.223Z,40.10
2022-08-09T20:55:17.202Z,40.46
2022-08-09T21:00:31.215Z,40.99
2022-08-09T21:05:52.969Z,41.51
2022-08-09T21:10:55.202Z,42.32
2022-08-09T21:15:57.566Z,42.13
2022-08-09T21:21:02.291Z,42.70
2022-08-09T21:26:19.536Z,43.60
2022-08-09T21:31:21.155Z,44.86
2022-08-09T21:36:27.992Z,45.06
2022-08-09T21:41:59.870Z,45.61
2022-08-09T21:46:55.193Z,45.45
2022-08-09T21:52:04.882Z,45.67
2022-08-09T21:57:07.275Z,46.09
2022-08-09T22:02:36.471Z,46.11
2022-08-09T22:07:51.640Z,47.05
2022-08-09T22:12:54.116Z,47.87
2022-08-09T22:17:56.408Z,48.28
2022-08-09T22:23:00.912Z,48.48
2022-08-09T22:28:06.575Z,48.73
2022-08-09T22:33:09.404Z,49.02
2022-08-09T22:38:11.426Z,48.92
2022-08-09T22:43:26.295Z,49.18
2022-08-09T22:48:38.384Z,49.38
2022-08-09T22:53:58.727Z,49.86
2022-08-09T22:59:06.082Z,50.62
2022-08-09T23:04:25.723Z,50.97
2022-08-09T23:09:27.648Z,51.12
2022-08-09T23:14:37.325Z,51.67
2022-08-09T23:20:06.065Z,51.92
2022-08-09T23:25:10.832Z,52.32
2022-08-09T23:30:12.586Z,52.43
2022-08-09T23:35:14.670Z,52.77
2022-08-09T23:46:17.524Z,52.36
2022-08-09T23:51:19.076Z,52.98
2022-08-09T23:56:51.947Z,52.85
